sensor_id;sensor_type;location;lat;lon;timestamp;P1;durP1;ratioP1;P2;durP2;ratioP2
16270;SDS011;8243;49.048;8.396;2023-03-02T00:00:38;18.97;;;12.60;;
16270;SDS011;8243;49.048;8.396;2023-03-02T00:03:06;22.33;;;13.00;;
16270;SDS011;8243;49.048;8.396;2023-03-02T00:05:32;20.33;;;12.83;;
16270;SDS011;8243;49.048;8.396;2023-03-02T00:07:58;20.67;;;12.63;;
16270;SDS011;8243;49.048;8.396;2023-03-02T00:10:25;18.43;;;13.10;;
16270;SDS011;8243;49.048;8.396;2023-03-02T00:12:52;18.38;;;12.38;;
16270;SDS011;8243;49.048;8.396;2023-03-02T00:15:17;16.93;;;11.83;;
16270;SDS011;8243;49.048;8.396;2023-03-02T00:17:43;20.10;;;11.97;;
16270;SDS011;8243;49.048;8.396;2023-03-02T00:20:08;21.73;;;13.03;;
16270;SDS011;8243;49.048;8.396;2023-03-02T00:22:35;17.37;;;11.93;;
16270;SDS011;8243;49.048;8.396;2023-03-02T00:25:02;18.43;;;12.40;;
16270;SDS011;8243;49.048;8.396;2023-03-02T00:27:29;17.93;;;12.90;;
16270;SDS011;8243;49.048;8.396;2023-03-02T00:29:57;21.50;;;12.83;;
16270;SDS011;8243;49.048;8.396;2023-03-02T00:32:23;17.70;;;12.60;;
16270;SDS011;8243;49.048;8.396;2023-03-02T00:34:49;19.00;;;12.70;;
16270;SDS011;8243;49.048;8.396;2023-03-02T00:37:15;18.17;;;12.40;;
16270;SDS011;8243;49.048;8.396;2023-03-02T00:39:40;20.50;;;11.90;;
16270;SDS011;8243;49.048;8.396;2023-03-02T00:42:06;18.57;;;12.53;;
16270;SDS011;8243;49.048;8.396;2023-03-02T00:44:31;19.00;;;13.27;;
16270;SDS011;8243;49.048;8.396;2023-03-02T00:46:57;20.43;;;12.70;;
16270;SDS011;8243;49.048;8.396;2023-03-02T00:49:23;20.50;;;13.67;;
16270;SDS011;8243;49.048;8.396;2023-03-02T00:51:49;19.70;;;13.00;;
16270;SDS011;8243;49.048;8.396;2023-03-02T00:54:14;20.67;;;12.93;;
16270;SDS011;8243;49.048;8.396;2023-03-02T00:56:40;19.87;;;14.13;;
16270;SDS011;8243;49.048;8.396;2023-03-02T00:59:06;18.73;;;13.43;;
16270;SDS011;8243;49.048;8.396;2023-03-02T01:01:50;20.33;;;12.73;;
16270;SDS011;8243;49.048;8.396;2023-03-02T01:06:59;19.70;;;13.33;;
16270;SDS011;8243;49.048;8.396;2023-03-02T01:09:26;22.47;;;13.43;;
16270;SDS011;8243;49.048;8.396;2023-03-02T01:11:52;21.30;;;13.50;;
16270;SDS011;8243;49.048;8.396;2023-03-02T01:14:18;21.87;;;14.07;;
16270;SDS011;8243;49.048;8.396;2023-03-02T01:16:44;20.73;;;14.03;;
16270;SDS011;8243;49.048;8.396;2023-03-02T01:19:11;23.77;;;14.00;;
16270;SDS011;8243;49.048;8.396;2023-03-02T01:21:37;18.40;;;12.87;;
16270;SDS011;8243;49.048;8.396;2023-03-02T01:24:03;20.67;;;13.77;;
16270;SDS011;8243;49.048;8.396;2023-03-02T01:26:29;19.60;;;13.43;;
16270;SDS011;8243;49.048;8.396;2023-03-02T01:28:54;21.23;;;13.97;;
16270;SDS011;8243;49.048;8.396;2023-03-02T01:31:24;22.90;;;14.40;;
16270;SDS011;8243;49.048;8.396;2023-03-02T01:33:50;19.13;;;12.47;;
16270;SDS011;8243;49.048;8.396;2023-03-02T01:36:16;19.73;;;13.53;;
16270;SDS011;8243;49.048;8.396;2023-03-02T01:38:42;20.90;;;13.07;;
16270;SDS011;8243;49.048;8.396;2023-03-02T01:41:08;20.33;;;12.17;;
16270;SDS011;8243;49.048;8.396;2023-03-02T01:43:34;20.10;;;12.77;;
16270;SDS011;8243;49.048;8.396;2023-03-02T01:46:21;21.30;;;12.77;;
16270;SDS011;8243;49.048;8.396;2023-03-02T01:48:47;19.23;;;12.70;;
16270;SDS011;8243;49.048;8.396;2023-03-02T01:51:23;19.83;;;13.37;;
16270;SDS011;8243;49.048;8.396;2023-03-02T01:53:54;20.47;;;12.27;;
16270;SDS011;8243;49.048;8.396;2023-03-02T01:56:28;20.97;;;12.97;;
16270;SDS011;8243;49.048;8.396;2023-03-02T01:59:00;20.47;;;13.17;;
16270;SDS011;8243;49.048;8.396;2023-03-02T02:01:29;21.40;;;13.90;;
16270;SDS011;8243;49.048;8.396;2023-03-02T02:03:57;19.50;;;12.90;;
16270;SDS011;8243;49.048;8.396;2023-03-02T02:06:24;25.50;;;14.63;;
16270;SDS011;8243;49.048;8.396;2023-03-02T02:08:49;22.17;;;14.17;;
16270;SDS011;8243;49.048;8.396;2023-03-02T02:11:18;20.80;;;13.70;;
16270;SDS011;8243;49.048;8.396;2023-03-02T02:13:43;21.33;;;13.80;;
16270;SDS011;8243;49.048;8.396;2023-03-02T02:16:10;21.23;;;13.67;;
16270;SDS011;8243;49.048;8.396;2023-03-02T02:18:36;21.23;;;14.43;;
16270;SDS011;8243;49.048;8.396;2023-03-02T02:21:03;22.97;;;14.43;;
16270;SDS011;8243;49.048;8.396;2023-03-02T02:23:36;19.77;;;13.70;;
16270;SDS011;8243;49.048;8.396;2023-03-02T02:28:43;18.43;;;11.73;;
16270;SDS011;8243;49.048;8.396;2023-03-02T02:34:18;20.53;;;12.57;;
16270;SDS011;8243;49.048;8.396;2023-03-02T02:36:51;21.07;;;12.00;;
16270;SDS011;8243;49.048;8.396;2023-03-02T02:39:24;17.00;;;12.30;;
16270;SDS011;8243;49.048;8.396;2023-03-02T02:41:54;20.47;;;12.30;;
16270;SDS011;8243;49.048;8.396;2023-03-02T02:44:23;20.53;;;13.27;;
16270;SDS011;8243;49.048;8.396;2023-03-02T02:46:48;19.73;;;12.33;;
16270;SDS011;8243;49.048;8.396;2023-03-02T02:49:25;18.87;;;12.77;;
16270;SDS011;8243;49.048;8.396;2023-03-02T02:51:51;20.07;;;13.43;;
16270;SDS011;8243;49.048;8.396;2023-03-02T02:54:17;22.60;;;13.80;;
16270;SDS011;8243;49.048;8.396;2023-03-02T02:56:43;20.17;;;13.30;;
16270;SDS011;8243;49.048;8.396;2023-03-02T03:01:44;20.60;;;13.47;;
16270;SDS011;8243;49.048;8.396;2023-03-02T03:04:12;20.00;;;12.87;;
16270;SDS011;8243;49.048;8.396;2023-03-02T03:06:48;18.33;;;13.43;;
16270;SDS011;8243;49.048;8.396;2023-03-02T03:09:16;19.90;;;13.90;;
16270;SDS011;8243;49.048;8.396;2023-03-02T03:11:42;24.80;;;15.43;;
16270;SDS011;8243;49.048;8.396;2023-03-02T03:14:20;19.50;;;14.27;;
16270;SDS011;8243;49.048;8.396;2023-03-02T03:16:52;24.67;;;15.43;;
16270;SDS011;8243;49.048;8.396;2023-03-02T03:19:22;24.17;;;15.00;;
16270;SDS011;8243;49.048;8.396;2023-03-02T03:21:53;21.03;;;14.67;;
16270;SDS011;8243;49.048;8.396;2023-03-02T03:24:20;21.97;;;14.33;;
16270;SDS011;8243;49.048;8.396;2023-03-02T03:26:46;22.47;;;14.73;;
16270;SDS011;8243;49.048;8.396;2023-03-02T03:29:13;23.47;;;14.40;;
16270;SDS011;8243;49.048;8.396;2023-03-02T03:31:39;22.90;;;15.30;;
16270;SDS011;8243;49.048;8.396;2023-03-02T03:34:05;22.83;;;15.03;;
16270;SDS011;8243;49.048;8.396;2023-03-02T03:36:31;24.87;;;15.50;;
16270;SDS011;8243;49.048;8.396;2023-03-02T03:38:57;23.17;;;14.80;;
16270;SDS011;8243;49.048;8.396;2023-03-02T03:41:23;22.70;;;15.87;;
16270;SDS011;8243;49.048;8.396;2023-03-02T03:43:49;25.13;;;15.90;;
16270;SDS011;8243;49.048;8.396;2023-03-02T03:46:15;24.83;;;15.87;;
16270;SDS011;8243;49.048;8.396;2023-03-02T03:48:41;23.97;;;15.70;;
16270;SDS011;8243;49.048;8.396;2023-03-02T03:51:08;22.63;;;14.20;;
16270;SDS011;8243;49.048;8.396;2023-03-02T03:53:34;24.50;;;14.73;;
16270;SDS011;8243;49.048;8.396;2023-03-02T03:56:00;20.30;;;13.70;;
16270;SDS011;8243;49.048;8.396;2023-03-02T03:58:27;22.30;;;13.77;;
16270;SDS011;8243;49.048;8.396;2023-03-02T04:00:54;21.10;;;13.17;;
16270;SDS011;8243;49.048;8.396;2023-03-02T04:03:20;21.80;;;13.43;;
16270;SDS011;8243;49.048;8.396;2023-03-02T04:05:46;21.77;;;13.17;;
16270;SDS011;8243;49.048;8.396;2023-03-02T04:08:13;21.40;;;13.83;;
16270;SDS011;8243;49.048;8.396;2023-03-02T04:10:38;23.00;;;14.77;;
16270;SDS011;8243;49.048;8.396;2023-03-02T04:13:04;25.87;;;14.07;;
16270;SDS011;8243;49.048;8.396;2023-03-02T04:15:30;22.07;;;13.57;;
16270;SDS011;8243;49.048;8.396;2023-03-02T04:17:56;19.30;;;13.27;;
16270;SDS011;8243;49.048;8.396;2023-03-02T04:20:22;22.40;;;14.60;;
16270;SDS011;8243;49.048;8.396;2023-03-02T04:22:49;23.80;;;13.40;;
16270;SDS011;8243;49.048;8.396;2023-03-02T04:25:17;21.27;;;13.63;;
16270;SDS011;8243;49.048;8.396;2023-03-02T04:27:46;26.37;;;15.70;;
16270;SDS011;8243;49.048;8.396;2023-03-02T04:30:14;23.17;;;14.93;;
16270;SDS011;8243;49.048;8.396;2023-03-02T04:32:41;22.90;;;14.67;;
16270;SDS011;8243;49.048;8.396;2023-03-02T04:35:08;20.37;;;13.67;;
16270;SDS011;8243;49.048;8.396;2023-03-02T04:37:38;20.00;;;13.87;;
16270;SDS011;8243;49.048;8.396;2023-03-02T04:40:04;21.60;;;13.67;;
16270;SDS011;8243;49.048;8.396;2023-03-02T04:42:31;21.57;;;13.17;;
16270;SDS011;8243;49.048;8.396;2023-03-02T04:44:56;19.50;;;13.07;;
16270;SDS011;8243;49.048;8.396;2023-03-02T04:47:22;19.00;;;13.30;;
16270;SDS011;8243;49.048;8.396;2023-03-02T04:49:48;21.20;;;13.90;;
16270;SDS011;8243;49.048;8.396;2023-03-02T04:52:18;20.40;;;13.13;;
16270;SDS011;8243;49.048;8.396;2023-03-02T04:54:47;23.87;;;13.67;;
16270;SDS011;8243;49.048;8.396;2023-03-02T04:57:12;21.13;;;13.87;;
16270;SDS011;8243;49.048;8.396;2023-03-02T04:59:38;22.77;;;13.70;;
16270;SDS011;8243;49.048;8.396;2023-03-02T05:02:04;20.37;;;13.67;;
16270;SDS011;8243;49.048;8.396;2023-03-02T05:04:30;22.80;;;13.83;;
16270;SDS011;8243;49.048;8.396;2023-03-02T05:06:56;20.27;;;13.63;;
16270;SDS011;8243;49.048;8.396;2023-03-02T05:09:22;23.33;;;15.13;;
16270;SDS011;8243;49.048;8.396;2023-03-02T05:11:52;21.00;;;12.83;;
16270;SDS011;8243;49.048;8.396;2023-03-02T05:14:19;22.60;;;14.27;;
16270;SDS011;8243;49.048;8.396;2023-03-02T05:16:44;21.67;;;14.13;;
16270;SDS011;8243;49.048;8.396;2023-03-02T05:19:10;22.47;;;14.43;;
16270;SDS011;8243;49.048;8.396;2023-03-02T05:21:36;24.60;;;16.53;;
16270;SDS011;8243;49.048;8.396;2023-03-02T05:24:02;24.07;;;16.30;;
16270;SDS011;8243;49.048;8.396;2023-03-02T05:26:28;50.50;;;24.80;;
16270;SDS011;8243;49.048;8.396;2023-03-02T05:28:54;47.03;;;23.87;;
16270;SDS011;8243;49.048;8.396;2023-03-02T05:31:21;33.80;;;19.13;;
16270;SDS011;8243;49.048;8.396;2023-03-02T05:33:55;55.23;;;30.33;;
16270;SDS011;8243;49.048;8.396;2023-03-02T05:36:21;62.43;;;29.57;;
16270;SDS011;8243;49.048;8.396;2023-03-02T05:38:46;54.63;;;28.77;;
16270;SDS011;8243;49.048;8.396;2023-03-02T05:41:12;28.50;;;18.43;;
16270;SDS011;8243;49.048;8.396;2023-03-02T05:43:37;24.93;;;15.77;;
16270;SDS011;8243;49.048;8.396;2023-03-02T05:46:03;23.07;;;15.77;;
16270;SDS011;8243;49.048;8.396;2023-03-02T05:48:29;23.40;;;14.23;;
16270;SDS011;8243;49.048;8.396;2023-03-02T05:50:55;24.53;;;15.50;;
16270;SDS011;8243;49.048;8.396;2023-03-02T05:53:21;19.77;;;13.67;;
16270;SDS011;8243;49.048;8.396;2023-03-02T05:55:47;22.77;;;15.53;;
16270;SDS011;8243;49.048;8.396;2023-03-02T05:58:13;22.60;;;14.97;;
16270;SDS011;8243;49.048;8.396;2023-03-02T06:00:41;23.40;;;14.67;;
16270;SDS011;8243;49.048;8.396;2023-03-02T06:03:06;20.93;;;14.63;;
16270;SDS011;8243;49.048;8.396;2023-03-02T06:05:32;22.63;;;14.80;;
16270;SDS011;8243;49.048;8.396;2023-03-02T06:07:58;21.73;;;14.03;;
16270;SDS011;8243;49.048;8.396;2023-03-02T06:10:24;18.53;;;13.20;;
16270;SDS011;8243;49.048;8.396;2023-03-02T06:12:50;20.90;;;13.90;;
16270;SDS011;8243;49.048;8.396;2023-03-02T06:15:15;22.73;;;13.53;;
16270;SDS011;8243;49.048;8.396;2023-03-02T06:17:41;22.37;;;14.70;;
16270;SDS011;8243;49.048;8.396;2023-03-02T06:20:07;27.40;;;15.57;;
16270;SDS011;8243;49.048;8.396;2023-03-02T06:22:38;20.73;;;14.47;;
16270;SDS011;8243;49.048;8.396;2023-03-02T06:25:05;22.07;;;15.33;;
16270;SDS011;8243;49.048;8.396;2023-03-02T06:27:35;22.57;;;14.13;;
16270;SDS011;8243;49.048;8.396;2023-03-02T06:30:02;20.67;;;13.63;;
16270;SDS011;8243;49.048;8.396;2023-03-02T06:32:28;21.13;;;14.47;;
16270;SDS011;8243;49.048;8.396;2023-03-02T06:34:58;19.87;;;14.30;;
16270;SDS011;8243;49.048;8.396;2023-03-02T06:37:25;23.70;;;15.10;;
16270;SDS011;8243;49.048;8.396;2023-03-02T06:39:52;20.37;;;14.00;;
16270;SDS011;8243;49.048;8.396;2023-03-02T06:42:21;21.97;;;14.43;;
16270;SDS011;8243;49.048;8.396;2023-03-02T06:44:47;22.10;;;14.33;;
16270;SDS011;8243;49.048;8.396;2023-03-02T06:47:13;20.73;;;14.40;;
16270;SDS011;8243;49.048;8.396;2023-03-02T06:49:39;22.87;;;14.03;;
16270;SDS011;8243;49.048;8.396;2023-03-02T06:52:04;23.40;;;14.63;;
16270;SDS011;8243;49.048;8.396;2023-03-02T06:54:34;19.03;;;13.07;;
16270;SDS011;8243;49.048;8.396;2023-03-02T06:57:00;20.07;;;13.27;;
16270;SDS011;8243;49.048;8.396;2023-03-02T06:59:26;18.93;;;12.90;;
16270;SDS011;8243;49.048;8.396;2023-03-02T07:01:52;19.70;;;12.80;;
16270;SDS011;8243;49.048;8.396;2023-03-02T07:04:17;18.77;;;12.80;;
16270;SDS011;8243;49.048;8.396;2023-03-02T07:06:43;18.60;;;12.27;;
16270;SDS011;8243;49.048;8.396;2023-03-02T07:09:08;20.30;;;13.00;;
16270;SDS011;8243;49.048;8.396;2023-03-02T07:11:34;22.17;;;12.77;;
16270;SDS011;8243;49.048;8.396;2023-03-02T07:14:00;21.33;;;12.37;;
16270;SDS011;8243;49.048;8.396;2023-03-02T07:16:25;19.67;;;13.90;;
16270;SDS011;8243;49.048;8.396;2023-03-02T07:18:51;19.33;;;13.10;;
16270;SDS011;8243;49.048;8.396;2023-03-02T07:21:17;19.13;;;12.33;;
16270;SDS011;8243;49.048;8.396;2023-03-02T07:23:42;19.80;;;13.83;;
16270;SDS011;8243;49.048;8.396;2023-03-02T07:26:08;20.53;;;13.13;;
16270;SDS011;8243;49.048;8.396;2023-03-02T07:28:34;19.90;;;13.60;;
16270;SDS011;8243;49.048;8.396;2023-03-02T07:31:03;18.57;;;13.77;;
16270;SDS011;8243;49.048;8.396;2023-03-02T07:33:29;19.73;;;12.47;;
16270;SDS011;8243;49.048;8.396;2023-03-02T07:35:54;19.80;;;12.90;;
16270;SDS011;8243;49.048;8.396;2023-03-02T07:38:20;21.53;;;13.73;;
16270;SDS011;8243;49.048;8.396;2023-03-02T07:40:46;19.97;;;13.13;;
16270;SDS011;8243;49.048;8.396;2023-03-02T07:43:11;21.03;;;13.33;;
16270;SDS011;8243;49.048;8.396;2023-03-02T07:45:37;19.87;;;12.77;;
16270;SDS011;8243;49.048;8.396;2023-03-02T07:48:03;18.80;;;13.93;;
16270;SDS011;8243;49.048;8.396;2023-03-02T07:50:29;30.50;;;14.30;;
16270;SDS011;8243;49.048;8.396;2023-03-02T07:52:55;30.40;;;16.10;;
16270;SDS011;8243;49.048;8.396;2023-03-02T07:55:20;40.67;;;14.23;;
16270;SDS011;8243;49.048;8.396;2023-03-02T07:57:46;48.83;;;15.43;;
16270;SDS011;8243;49.048;8.396;2023-03-02T08:00:12;35.50;;;13.77;;
16270;SDS011;8243;49.048;8.396;2023-03-02T08:02:38;40.80;;;15.93;;
16270;SDS011;8243;49.048;8.396;2023-03-02T08:05:05;23.37;;;14.03;;
16270;SDS011;8243;49.048;8.396;2023-03-02T08:07:31;21.40;;;13.83;;
16270;SDS011;8243;49.048;8.396;2023-03-02T08:09:56;20.60;;;12.83;;
16270;SDS011;8243;49.048;8.396;2023-03-02T08:12:24;21.43;;;13.40;;
16270;SDS011;8243;49.048;8.396;2023-03-02T08:14:50;20.57;;;13.50;;
16270;SDS011;8243;49.048;8.396;2023-03-02T08:17:16;17.80;;;12.03;;
16270;SDS011;8243;49.048;8.396;2023-03-02T08:19:42;19.73;;;13.27;;
16270;SDS011;8243;49.048;8.396;2023-03-02T08:22:07;19.90;;;13.67;;
16270;SDS011;8243;49.048;8.396;2023-03-02T08:24:33;19.50;;;13.47;;
16270;SDS011;8243;49.048;8.396;2023-03-02T08:27:00;21.03;;;13.47;;
16270;SDS011;8243;49.048;8.396;2023-03-02T08:29:26;24.47;;;15.07;;
16270;SDS011;8243;49.048;8.396;2023-03-02T08:31:52;21.50;;;14.07;;
16270;SDS011;8243;49.048;8.396;2023-03-02T08:34:17;17.13;;;12.57;;
16270;SDS011;8243;49.048;8.396;2023-03-02T08:36:43;21.97;;;14.90;;
16270;SDS011;8243;49.048;8.396;2023-03-02T08:39:09;18.80;;;13.90;;
16270;SDS011;8243;49.048;8.396;2023-03-02T08:41:35;20.90;;;14.43;;
16270;SDS011;8243;49.048;8.396;2023-03-02T08:44:00;22.63;;;13.87;;
16270;SDS011;8243;49.048;8.396;2023-03-02T08:46:26;23.13;;;15.03;;
16270;SDS011;8243;49.048;8.396;2023-03-02T08:48:51;19.37;;;13.73;;
16270;SDS011;8243;49.048;8.396;2023-03-02T08:51:19;19.83;;;13.40;;
16270;SDS011;8243;49.048;8.396;2023-03-02T08:53:47;18.17;;;14.20;;
16270;SDS011;8243;49.048;8.396;2023-03-02T08:56:17;17.00;;;12.57;;
16270;SDS011;8243;49.048;8.396;2023-03-02T08:58:44;22.23;;;13.73;;
16270;SDS011;8243;49.048;8.396;2023-03-02T09:01:13;20.47;;;13.37;;
16270;SDS011;8243;49.048;8.396;2023-03-02T09:03:44;19.03;;;13.30;;
16270;SDS011;8243;49.048;8.396;2023-03-02T09:06:09;22.47;;;13.80;;
16270;SDS011;8243;49.048;8.396;2023-03-02T09:08:35;21.60;;;14.17;;
16270;SDS011;8243;49.048;8.396;2023-03-02T09:11:01;22.00;;;15.57;;
16270;SDS011;8243;49.048;8.396;2023-03-02T09:13:27;22.80;;;14.50;;
16270;SDS011;8243;49.048;8.396;2023-03-02T09:15:52;24.23;;;14.77;;
16270;SDS011;8243;49.048;8.396;2023-03-02T09:18:18;21.27;;;14.97;;
16270;SDS011;8243;49.048;8.396;2023-03-02T09:20:43;19.17;;;12.53;;
16270;SDS011;8243;49.048;8.396;2023-03-02T09:23:13;19.37;;;13.90;;
16270;SDS011;8243;49.048;8.396;2023-03-02T09:25:38;20.40;;;14.47;;
16270;SDS011;8243;49.048;8.396;2023-03-02T09:28:04;19.30;;;12.77;;
16270;SDS011;8243;49.048;8.396;2023-03-02T09:30:30;19.47;;;13.83;;
16270;SDS011;8243;49.048;8.396;2023-03-02T09:32:56;17.97;;;10.63;;
16270;SDS011;8243;49.048;8.396;2023-03-02T09:35:22;24.13;;;11.63;;
16270;SDS011;8243;49.048;8.396;2023-03-02T09:37:47;24.73;;;13.87;;
16270;SDS011;8243;49.048;8.396;2023-03-02T09:40:19;20.07;;;14.37;;
16270;SDS011;8243;49.048;8.396;2023-03-02T09:42:53;27.70;;;12.23;;
16270;SDS011;8243;49.048;8.396;2023-03-02T09:46:01;18.20;;;11.30;;
16270;SDS011;8243;49.048;8.396;2023-03-02T09:54:57;20.57;;;14.33;;
16270;SDS011;8243;49.048;8.396;2023-03-02T09:57:40;21.83;;;14.50;;
16270;SDS011;8243;49.048;8.396;2023-03-02T10:00:10;20.60;;;12.20;;
16270;SDS011;8243;49.048;8.396;2023-03-02T10:02:43;17.90;;;11.13;;
16270;SDS011;8243;49.048;8.396;2023-03-02T10:05:37;19.40;;;13.80;;
16270;SDS011;8243;49.048;8.396;2023-03-02T10:08:10;20.80;;;13.93;;
16270;SDS011;8243;49.048;8.396;2023-03-02T10:11:32;18.77;;;13.50;;
16270;SDS011;8243;49.048;8.396;2023-03-02T10:21:39;19.30;;;13.80;;
16270;SDS011;8243;49.048;8.396;2023-03-02T10:29:54;24.20;;;14.30;;
16270;SDS011;8243;49.048;8.396;2023-03-02T10:32:42;22.07;;;14.60;;
16270;SDS011;8243;49.048;8.396;2023-03-02T10:35:15;19.03;;;13.17;;
16270;SDS011;8243;49.048;8.396;2023-03-02T10:37:45;17.83;;;13.50;;
16270;SDS011;8243;49.048;8.396;2023-03-02T10:40:23;18.77;;;13.23;;
16270;SDS011;8243;49.048;8.396;2023-03-02T10:43:28;18.97;;;13.57;;
16270;SDS011;8243;49.048;8.396;2023-03-02T10:45:58;19.97;;;13.73;;
16270;SDS011;8243;49.048;8.396;2023-03-02T10:48:28;17.73;;;13.77;;
16270;SDS011;8243;49.048;8.396;2023-03-02T10:50:55;22.97;;;14.87;;
16270;SDS011;8243;49.048;8.396;2023-03-02T10:53:22;21.40;;;14.80;;
16270;SDS011;8243;49.048;8.396;2023-03-02T10:55:50;21.37;;;14.37;;
16270;SDS011;8243;49.048;8.396;2023-03-02T10:58:31;19.17;;;14.43;;
16270;SDS011;8243;49.048;8.396;2023-03-02T11:01:04;19.57;;;15.27;;
16270;SDS011;8243;49.048;8.396;2023-03-02T11:03:39;18.70;;;13.47;;
16270;SDS011;8243;49.048;8.396;2023-03-02T11:06:38;19.57;;;14.40;;
16270;SDS011;8243;49.048;8.396;2023-03-02T11:09:01;19.77;;;11.53;;
16270;SDS011;8243;49.048;8.396;2023-03-02T11:11:28;18.97;;;14.80;;
16270;SDS011;8243;49.048;8.396;2023-03-02T11:13:54;18.83;;;14.17;;
16270;SDS011;8243;49.048;8.396;2023-03-02T11:16:31;20.90;;;13.87;;
16270;SDS011;8243;49.048;8.396;2023-03-02T11:18:58;18.63;;;14.00;;
16270;SDS011;8243;49.048;8.396;2023-03-02T11:21:39;18.10;;;12.83;;
16270;SDS011;8243;49.048;8.396;2023-03-02T11:24:20;17.23;;;14.13;;
16270;SDS011;8243;49.048;8.396;2023-03-02T11:26:49;21.03;;;14.60;;
16270;SDS011;8243;49.048;8.396;2023-03-02T11:29:35;20.60;;;14.50;;
16270;SDS011;8243;49.048;8.396;2023-03-02T11:34:42;17.70;;;13.73;;
16270;SDS011;8243;49.048;8.396;2023-03-02T11:42:14;16.80;;;12.83;;
16270;SDS011;8243;49.048;8.396;2023-03-02T11:44:45;20.30;;;14.60;;
16270;SDS011;8243;49.048;8.396;2023-03-02T11:47:11;19.67;;;14.83;;
16270;SDS011;8243;49.048;8.396;2023-03-02T11:49:38;16.03;;;13.90;;
16270;SDS011;8243;49.048;8.396;2023-03-02T11:52:31;17.90;;;12.00;;
16270;SDS011;8243;49.048;8.396;2023-03-02T11:55:05;17.90;;;13.80;;
16270;SDS011;8243;49.048;8.396;2023-03-02T11:57:42;15.73;;;11.63;;
16270;SDS011;8243;49.048;8.396;2023-03-02T12:00:15;16.97;;;13.03;;
16270;SDS011;8243;49.048;8.396;2023-03-02T12:02:42;18.40;;;13.40;;
16270;SDS011;8243;49.048;8.396;2023-03-02T12:05:29;17.97;;;14.10;;
16270;SDS011;8243;49.048;8.396;2023-03-02T12:07:56;22.73;;;14.50;;
16270;SDS011;8243;49.048;8.396;2023-03-02T12:10:23;17.77;;;13.57;;
16270;SDS011;8243;49.048;8.396;2023-03-02T12:13:05;17.73;;;15.27;;
16270;SDS011;8243;49.048;8.396;2023-03-02T12:15:42;19.33;;;15.10;;
16270;SDS011;8243;49.048;8.396;2023-03-02T12:21:07;19.87;;;15.73;;
16270;SDS011;8243;49.048;8.396;2023-03-02T12:29:01;20.60;;;15.27;;
16270;SDS011;8243;49.048;8.396;2023-03-02T12:37:05;20.23;;;15.53;;
16270;SDS011;8243;49.048;8.396;2023-03-02T12:42:32;20.40;;;15.67;;
16270;SDS011;8243;49.048;8.396;2023-03-02T12:45:06;18.03;;;14.53;;
16270;SDS011;8243;49.048;8.396;2023-03-02T12:48:01;20.40;;;15.17;;
16270;SDS011;8243;49.048;8.396;2023-03-02T12:50:36;21.93;;;14.90;;
16270;SDS011;8243;49.048;8.396;2023-03-02T12:53:03;19.00;;;15.13;;
16270;SDS011;8243;49.048;8.396;2023-03-02T12:55:31;18.20;;;14.07;;
16270;SDS011;8243;49.048;8.396;2023-03-02T12:57:59;21.23;;;15.83;;
16270;SDS011;8243;49.048;8.396;2023-03-02T13:00:27;18.10;;;15.43;;
16270;SDS011;8243;49.048;8.396;2023-03-02T13:02:55;18.77;;;15.37;;
16270;SDS011;8243;49.048;8.396;2023-03-02T13:05:23;19.10;;;14.70;;
16270;SDS011;8243;49.048;8.396;2023-03-02T13:08:02;19.07;;;14.83;;
16270;SDS011;8243;49.048;8.396;2023-03-02T13:10:39;18.10;;;12.43;;
16270;SDS011;8243;49.048;8.396;2023-03-02T13:13:19;34.57;;;14.10;;
16270;SDS011;8243;49.048;8.396;2023-03-02T13:15:46;18.27;;;14.80;;
16270;SDS011;8243;49.048;8.396;2023-03-02T13:18:19;19.40;;;13.70;;
16270;SDS011;8243;49.048;8.396;2023-03-02T13:20:47;22.87;;;14.57;;
16270;SDS011;8243;49.048;8.396;2023-03-02T13:23:14;18.23;;;14.30;;
16270;SDS011;8243;49.048;8.396;2023-03-02T13:25:49;18.93;;;14.63;;
16270;SDS011;8243;49.048;8.396;2023-03-02T13:28:50;21.87;;;14.67;;
16270;SDS011;8243;49.048;8.396;2023-03-02T13:31:20;17.10;;;13.57;;
16270;SDS011;8243;49.048;8.396;2023-03-02T13:33:47;17.27;;;14.30;;
16270;SDS011;8243;49.048;8.396;2023-03-02T13:36:20;19.50;;;14.87;;
16270;SDS011;8243;49.048;8.396;2023-03-02T13:38:49;21.43;;;15.87;;
16270;SDS011;8243;49.048;8.396;2023-03-02T13:41:23;16.67;;;14.87;;
16270;SDS011;8243;49.048;8.396;2023-03-02T13:43:56;17.37;;;13.97;;
16270;SDS011;8243;49.048;8.396;2023-03-02T13:46:24;18.50;;;14.40;;
16270;SDS011;8243;49.048;8.396;2023-03-02T13:48:53;18.63;;;14.80;;
16270;SDS011;8243;49.048;8.396;2023-03-02T13:51:19;19.00;;;14.90;;
16270;SDS011;8243;49.048;8.396;2023-03-02T13:53:52;18.17;;;14.80;;
16270;SDS011;8243;49.048;8.396;2023-03-02T13:56:24;15.93;;;14.20;;
16270;SDS011;8243;49.048;8.396;2023-03-02T13:58:53;18.20;;;13.90;;
16270;SDS011;8243;49.048;8.396;2023-03-02T14:01:18;20.10;;;14.37;;
16270;SDS011;8243;49.048;8.396;2023-03-02T14:03:44;18.07;;;14.37;;
16270;SDS011;8243;49.048;8.396;2023-03-02T14:06:10;16.63;;;14.60;;
16270;SDS011;8243;49.048;8.396;2023-03-02T14:08:35;17.00;;;14.43;;
16270;SDS011;8243;49.048;8.396;2023-03-02T14:11:01;18.77;;;14.97;;
16270;SDS011;8243;49.048;8.396;2023-03-02T14:13:36;20.53;;;15.43;;
16270;SDS011;8243;49.048;8.396;2023-03-02T14:16:12;18.27;;;15.20;;
16270;SDS011;8243;49.048;8.396;2023-03-02T14:18:40;19.23;;;15.20;;
16270;SDS011;8243;49.048;8.396;2023-03-02T14:21:14;19.20;;;16.80;;
16270;SDS011;8243;49.048;8.396;2023-03-02T14:23:44;25.40;;;18.30;;
16270;SDS011;8243;49.048;8.396;2023-03-02T14:28:42;22.93;;;20.07;;
16270;SDS011;8243;49.048;8.396;2023-03-02T14:31:07;24.43;;;18.30;;
16270;SDS011;8243;49.048;8.396;2023-03-02T14:33:34;21.27;;;17.57;;
16270;SDS011;8243;49.048;8.396;2023-03-02T14:36:00;24.47;;;17.87;;
16270;SDS011;8243;49.048;8.396;2023-03-02T14:38:27;21.60;;;17.80;;
16270;SDS011;8243;49.048;8.396;2023-03-02T14:40:53;24.80;;;18.90;;
16270;SDS011;8243;49.048;8.396;2023-03-02T14:43:19;22.67;;;17.80;;
16270;SDS011;8243;49.048;8.396;2023-03-02T14:45:45;24.30;;;18.33;;
16270;SDS011;8243;49.048;8.396;2023-03-02T14:48:11;23.93;;;18.03;;
16270;SDS011;8243;49.048;8.396;2023-03-02T14:50:38;22.77;;;18.07;;
16270;SDS011;8243;49.048;8.396;2023-03-02T14:53:06;20.90;;;17.37;;
16270;SDS011;8243;49.048;8.396;2023-03-02T14:55:40;22.53;;;17.33;;
16270;SDS011;8243;49.048;8.396;2023-03-02T14:58:10;23.60;;;16.97;;
16270;SDS011;8243;49.048;8.396;2023-03-02T15:00:39;27.60;;;18.50;;
16270;SDS011;8243;49.048;8.396;2023-03-02T15:03:05;26.00;;;18.53;;
16270;SDS011;8243;49.048;8.396;2023-03-02T15:05:31;22.33;;;17.90;;
16270;SDS011;8243;49.048;8.396;2023-03-02T15:07:56;24.03;;;18.00;;
16270;SDS011;8243;49.048;8.396;2023-03-02T15:10:22;21.73;;;18.70;;
16270;SDS011;8243;49.048;8.396;2023-03-02T15:12:48;23.97;;;18.70;;
16270;SDS011;8243;49.048;8.396;2023-03-02T15:15:14;22.07;;;17.53;;
16270;SDS011;8243;49.048;8.396;2023-03-02T15:17:40;25.67;;;18.00;;
16270;SDS011;8243;49.048;8.396;2023-03-02T15:20:06;22.83;;;17.77;;
16270;SDS011;8243;49.048;8.396;2023-03-02T15:22:32;23.27;;;18.57;;
16270;SDS011;8243;49.048;8.396;2023-03-02T15:24:58;25.13;;;20.33;;
16270;SDS011;8243;49.048;8.396;2023-03-02T15:27:24;22.17;;;18.23;;
16270;SDS011;8243;49.048;8.396;2023-03-02T15:29:49;26.43;;;19.60;;
16270;SDS011;8243;49.048;8.396;2023-03-02T15:32:15;24.27;;;17.40;;
16270;SDS011;8243;49.048;8.396;2023-03-02T15:34:41;23.33;;;18.73;;
16270;SDS011;8243;49.048;8.396;2023-03-02T15:37:08;24.00;;;17.93;;
16270;SDS011;8243;49.048;8.396;2023-03-02T15:39:35;22.87;;;19.10;;